createdAt,value
2023-01-09T00:12:09.527Z,99375.66
2023-01-09T00:27:14.547Z,99342.45
2023-01-09T00:42:22.499Z,99355.71
2023-01-09T00:57:25.694Z,99340.88
2023-01-09T01:12:29.001Z,99319.14
2023-01-09T01:27:32.214Z,99334.99
2023-01-09T01:42:35.565Z,99323.33
2023-01-09T01:57:43.381Z,99323.66
2023-01-09T02:12:46.742Z,99332.89
2023-01-09T02:28:05.255Z,99326.70
2023-01-09T02:43:09.779Z,99328.81
2023-01-09T02:58:23.505Z,99332.08
2023-01-09T03:13:34.396Z,99304.20
2023-01-09T03:28:38.286Z,99281.92
2023-01-09T03:43:41.533Z,99264.77
2023-01-09T03:58:44.677Z,99250.44
2023-01-09T04:13:47.987Z,99234.24
2023-01-09T04:28:51.526Z,99211.80
2023-01-09T04:43:54.679Z,99215.65
2023-01-09T04:58:58.110Z,99225.89
2023-01-09T05:14:01.312Z,99210.60
2023-01-09T05:29:04.495Z,99189.11
2023-01-09T05:44:07.633Z,99177.88
2023-01-09T05:59:10.786Z,99168.56
2023-01-09T06:14:14.210Z,99157.34
2023-01-09T06:29:17.550Z,99153.55
2023-01-09T06:44:20.792Z,99138.71
2023-01-09T06:59:24.018Z,99129.25
2023-01-09T07:14:28.012Z,99130.89
2023-01-09T07:29:31.373Z,99133.86
2023-01-09T07:44:35.078Z,99139.00
2023-01-09T07:59:38.312Z,99130.56
2023-01-09T08:14:41.793Z,99125.34
2023-01-09T08:29:45.197Z,99119.33
2023-01-09T08:45:07.006Z,99113.10
2023-01-09T09:00:11.121Z,99091.52
2023-01-09T09:15:16.578Z,99081.74
2023-01-09T09:30:20.838Z,99076.55
2023-01-09T09:45:27.014Z,99073.57
2023-01-09T10:00:30.408Z,99057.72
2023-01-09T10:15:46.313Z,99032.71
2023-01-09T10:31:56.965Z,99013.11
2023-01-09T10:47:01.973Z,99003.73
2023-01-09T11:02:18.798Z,98986.84
2023-01-09T11:17:27.206Z,98981.29
2023-01-09T11:32:32.332Z,98975.54
2023-01-09T11:47:41.169Z,98954.13
2023-01-09T12:02:53.738Z,98947.20
2023-01-09T12:18:42.461Z,98931.59
2023-01-09T12:33:45.560Z,98907.89
2023-01-09T12:49:29.431Z,98889.14
2023-01-09T13:04:38.080Z,98873.94
2023-01-09T13:19:43.994Z,98861.86
2023-01-09T13:34:52.167Z,98856.44
2023-01-09T13:50:06.134Z,98853.91
2023-01-09T14:05:36.787Z,98861.99
2023-01-09T14:20:44.335Z,98872.15
2023-01-09T14:36:14.849Z,98874.45
2023-01-09T14:51:20.400Z,98872.19
2023-01-09T15:06:26.420Z,98872.44
2023-01-09T15:21:31.415Z,98871.23
2023-01-09T15:36:38.039Z,98873.41
2023-01-09T15:51:46.675Z,98888.94
2023-01-09T16:06:52.668Z,98902.63
2023-01-09T16:22:03.548Z,98900.03
2023-01-09T16:37:06.837Z,98909.15
2023-01-09T16:52:17.963Z,98920.19
2023-01-09T17:07:28.061Z,98921.39
2023-01-09T17:22:31.385Z,98937.98
2023-01-09T17:37:34.735Z,98945.88
2023-01-09T17:52:37.887Z,98955.97
2023-01-09T18:07:41.277Z,98957.33
2023-01-09T18:22:44.588Z,98946.06
2023-01-09T18:37:48.541Z,98978.62
2023-01-09T18:52:52.953Z,98975.70
2023-01-09T19:07:59.170Z,98980.52
2023-01-09T19:23:03.517Z,98978.92
2023-01-09T19:38:07.492Z,99009.09
2023-01-09T19:53:12.158Z,99031.17
2023-01-09T20:08:18.098Z,99073.58
2023-01-09T20:23:28.071Z,99088.33
2023-01-09T20:38:32.552Z,99106.27
2023-01-09T20:53:35.871Z,99136.73
2023-01-09T21:09:18.356Z,99155.52
2023-01-09T21:24:28.983Z,99163.54
2023-01-09T21:39:33.119Z,99185.17
2023-01-09T21:54:36.739Z,99210.29
2023-01-09T22:09:39.980Z,99238.36
2023-01-09T22:24:44.385Z,99273.62
2023-01-09T22:39:48.314Z,99295.54
2023-01-09T22:54:51.575Z,99325.52
2023-01-09T23:09:57.165Z,99329.48
2023-01-09T23:25:00.352Z,99344.44
2023-01-09T23:40:04.699Z,99367.34
2023-01-09T23:55:08.219Z,99393.23
